createdAt,value
2023-03-12T00:00:12.456Z,-0.56
2023-03-12T00:01:12.425Z,-0.62
2023-03-12T00:02:12.629Z,-0.67
2023-03-12T00:03:12.398Z,-0.67
2023-03-12T00:04:12.442Z,-0.69
2023-03-12T00:05:12.412Z,-0.70
2023-03-12T00:06:12.601Z,-0.72
2023-03-12T00:07:12.433Z,-0.78
2023-03-12T00:08:12.579Z,-0.80
2023-03-12T00:09:12.414Z,-0.84
2023-03-12T00:10:12.310Z,-0.87
2023-03-12T00:11:12.413Z,-0.89
2023-03-12T00:12:12.289Z,-0.91
2023-03-12T00:13:12.425Z,-0.94
2023-03-12T00:14:12.336Z,-0.93
2023-03-12T00:15:12.405Z,-0.97
2023-03-12T00:16:12.374Z,-0.97
2023-03-12T00:17:12.209Z,-1.00
2023-03-12T00:18:12.278Z,-0.99
2023-03-12T00:19:12.478Z,-1.00
2023-03-12T00:20:12.269Z,-1.01
2023-03-12T00:21:12.168Z,-1.04
2023-03-12T00:22:12.241Z,-1.04
2023-03-12T00:23:12.169Z,-1.06
2023-03-12T00:24:12.251Z,-1.06
2023-03-12T00:25:12.090Z,-1.06
2023-03-12T00:26:12.271Z,-1.03
2023-03-12T00:27:12.095Z,-1.06
2023-03-12T00:28:12.251Z,-1.04
2023-03-12T00:29:12.045Z,-1.04
2023-03-12T00:30:12.073Z,-1.06
2023-03-12T00:31:12.107Z,-1.04
2023-03-12T00:32:12.306Z,-1.06
2023-03-12T00:33:12.094Z,-1.06
2023-03-12T00:34:12.048Z,-1.06
2023-03-12T00:35:12.082Z,-1.06
2023-03-12T00:36:12.313Z,-1.04
2023-03-12T00:37:11.923Z,-1.00
2023-03-12T00:38:12.029Z,-0.99
2023-03-12T00:39:12.071Z,-0.99
2023-03-12T00:40:11.928Z,-0.97
2023-03-12T00:41:12.207Z,-0.96
2023-03-12T00:42:11.941Z,-0.96
2023-03-12T00:43:11.888Z,-0.96
2023-03-12T00:44:11.915Z,-0.96
2023-03-12T00:45:12.196Z,-0.96
2023-03-12T00:46:11.917Z,-0.99
2023-03-12T00:47:11.833Z,-1.00
2023-03-12T00:48:11.936Z,-0.96
2023-03-12T00:49:11.795Z,-0.99
2023-03-12T00:50:11.942Z,-0.97
2023-03-12T00:51:11.868Z,-1.00
2023-03-12T00:52:11.920Z,-1.00
2023-03-12T00:53:11.761Z,-0.99
2023-03-12T00:54:11.931Z,-0.99
2023-03-12T00:55:11.770Z,-0.97
2023-03-12T00:56:12.038Z,-0.97
2023-03-12T00:57:11.781Z,-0.94
2023-03-12T00:58:11.939Z,-0.91
2023-03-12T00:59:11.808Z,-0.94
2023-03-12T01:00:11.681Z,-0.93
2023-03-12T10:52:55.275Z,8.11
2023-03-12T10:53:56.269Z,8.09
2023-03-12T10:54:56.395Z,8.09
2023-03-12T10:55:56.287Z,7.99
2023-03-12T10:56:56.411Z,7.93
2023-03-12T10:57:56.223Z,7.77
2023-03-12T10:58:56.408Z,7.62
2023-03-12T10:59:56.239Z,7.58
2023-03-12T11:00:56.361Z,7.75
2023-03-12T11:01:56.293Z,7.72
2023-03-12T11:02:56.939Z,7.88
2023-03-12T11:03:56.177Z,8.11
2023-03-12T11:04:56.061Z,8.36
2023-03-12T11:05:56.104Z,8.50
2023-03-12T11:06:56.090Z,8.72
2023-03-12T11:07:56.054Z,8.90
2023-03-12T11:09:06.431Z,8.79
2023-03-12T11:09:56.086Z,8.64
2023-03-12T11:10:55.974Z,8.61
2023-03-12T11:11:55.955Z,8.56
2023-03-12T11:12:56.094Z,8.44
2023-03-12T11:13:55.939Z,8.13
2023-03-12T11:14:56.094Z,8.13
2023-03-12T11:15:56.092Z,8.14
2023-03-12T11:16:55.909Z,8.20
2023-03-12T11:17:55.919Z,8.23
2023-03-12T11:18:55.878Z,8.28
2023-03-12T11:19:55.863Z,8.32
2023-03-12T11:20:56.090Z,8.31
2023-03-12T11:21:55.916Z,8.32
2023-03-12T11:22:56.090Z,8.34
2023-03-12T11:23:55.813Z,8.13
2023-03-12T11:24:55.824Z,7.96
2023-03-12T11:25:55.764Z,8.01
2023-03-12T11:26:55.809Z,7.98
2023-03-12T11:27:56.132Z,8.02
2023-03-12T11:28:55.783Z,8.02
2023-03-12T11:29:55.892Z,7.88
2023-03-12T11:30:55.904Z,7.84
2023-03-12T11:31:55.853Z,7.95
2023-03-12T11:32:55.942Z,7.96
2023-03-12T11:33:55.698Z,7.98
2023-03-12T11:34:55.678Z,8.03
2023-03-12T11:35:55.665Z,7.93
2023-03-12T11:36:55.851Z,7.91
2023-03-12T11:37:55.576Z,7.91
2023-03-12T11:38:55.566Z,7.96
2023-03-12T11:39:55.669Z,7.96
2023-03-12T11:40:55.635Z,8.05
2023-03-12T11:41:55.674Z,8.02
2023-03-12T11:42:55.556Z,7.95
2023-03-12T11:43:55.585Z,7.93
2023-03-12T11:44:55.580Z,8.03
2023-03-12T11:45:55.464Z,8.03
2023-03-12T11:46:55.686Z,7.99
2023-03-12T11:47:55.773Z,7.98
2023-03-12T11:48:55.490Z,7.78
2023-03-12T11:49:55.488Z,7.69
2023-03-12T11:50:55.452Z,7.66
2023-03-12T11:51:55.469Z,7.72
2023-03-12T11:52:55.451Z,7.87
2023-03-12T11:53:55.462Z,7.91
2023-03-12T11:54:55.595Z,7.81
2023-03-12T11:55:55.369Z,7.77
2023-03-12T11:56:55.851Z,7.72
2023-03-12T11:57:55.401Z,7.77
2023-03-12T11:58:55.444Z,7.78
2023-03-12T11:59:55.398Z,7.64
2023-03-12T12:00:55.427Z,7.58
2023-03-12T12:01:55.411Z,7.41
2023-03-12T12:02:55.336Z,7.19
2023-03-12T12:03:55.359Z,7.10
2023-03-12T12:04:55.307Z,7.19
2023-03-12T12:05:55.346Z,7.32
2023-03-12T12:06:55.219Z,7.40
2023-03-12T12:07:55.269Z,7.47
2023-03-12T12:08:55.196Z,7.51
2023-03-12T12:09:55.156Z,7.62
2023-03-12T12:10:55.173Z,7.74
2023-03-12T12:11:55.211Z,7.72
2023-03-12T12:12:55.142Z,7.75
2023-03-12T12:13:55.213Z,7.84
2023-03-12T12:14:55.136Z,7.83
2023-03-12T12:15:55.113Z,7.90
2023-03-12T12:16:55.135Z,8.01
2023-03-12T12:17:55.329Z,8.09
2023-03-12T12:18:55.156Z,8.14
2023-03-12T12:19:55.325Z,8.09
2023-03-12T12:20:55.025Z,8.23
2023-03-12T12:21:55.330Z,8.27
2023-03-12T12:22:55.094Z,8.21
2023-03-12T12:23:55.075Z,8.24
2023-03-12T12:24:55.073Z,8.39
2023-03-12T12:25:55.692Z,8.46
2023-03-12T12:26:55.340Z,8.46
2023-03-12T12:27:55.251Z,8.36
2023-03-12T12:28:55.237Z,8.32
2023-03-12T12:29:55.087Z,8.26
2023-03-12T12:30:55.122Z,8.34
2023-03-12T12:31:55.322Z,8.39
2023-03-12T12:32:55.350Z,8.45
2023-03-12T12:33:55.143Z,8.57
2023-03-12T12:34:55.332Z,8.64
2023-03-12T12:35:54.899Z,8.71
2023-03-12T12:36:54.769Z,8.82
2023-03-12T12:37:54.809Z,8.61
2023-03-12T12:38:54.766Z,8.54
2023-03-12T12:39:54.799Z,8.38
2023-03-12T12:40:55.056Z,8.27
2023-03-12T12:41:54.769Z,8.26
2023-03-12T12:42:54.729Z,8.31
2023-03-12T12:43:54.774Z,8.36
2023-03-12T12:44:54.700Z,8.41
2023-03-12T12:45:54.727Z,8.42
2023-03-12T12:46:54.799Z,8.45
2023-03-12T12:47:54.706Z,8.49
2023-03-12T12:48:54.719Z,8.54
2023-03-12T12:49:54.685Z,8.45
2023-03-12T12:50:54.685Z,8.45
2023-03-12T12:51:54.603Z,8.27
2023-03-12T12:52:54.659Z,8.11
2023-03-12T12:53:54.594Z,8.06
2023-03-12T12:54:54.591Z,8.06
2023-03-12T12:55:54.557Z,8.13
2023-03-12T12:56:54.604Z,8.14
2023-03-12T12:57:54.625Z,8.21
2023-03-12T12:58:54.551Z,8.26
2023-03-12T12:59:54.623Z,8.35
2023-03-12T13:00:54.553Z,8.53
2023-03-12T13:01:54.469Z,8.63
2023-03-12T13:02:54.496Z,8.61
2023-03-12T13:03:54.528Z,8.64
2023-03-12T13:04:54.498Z,8.60
2023-03-12T13:05:54.826Z,8.57
2023-03-12T13:06:54.386Z,8.72
2023-03-12T13:07:54.420Z,8.72
2023-03-12T13:08:54.432Z,8.66
2023-03-12T13:09:54.366Z,8.72
2023-03-12T13:11:02.083Z,8.74
2023-03-12T13:11:54.382Z,8.69
2023-03-12T13:12:54.348Z,8.72
2023-03-12T13:13:54.379Z,8.72
2023-03-12T13:14:54.312Z,8.66
2023-03-12T13:15:54.342Z,8.53
2023-03-12T13:16:54.313Z,8.42
2023-03-12T13:17:54.295Z,8.26
2023-03-12T13:18:54.399Z,8.20
2023-03-12T13:20:00.851Z,7.98
2023-03-12T13:20:54.262Z,7.96
2023-03-12T13:21:54.247Z,7.91
2023-03-12T13:22:54.268Z,7.93
2023-03-12T13:23:54.173Z,8.06
2023-03-12T13:24:54.160Z,8.03
2023-03-12T13:25:54.335Z,8.09
2023-03-12T13:26:54.197Z,8.23
2023-03-12T13:27:54.344Z,8.31
2023-03-12T13:29:05.940Z,8.31
2023-03-12T13:29:54.070Z,8.32
2023-03-12T13:30:54.209Z,8.31
2023-03-12T13:31:54.062Z,8.16
2023-03-12T13:32:54.249Z,8.21
2023-03-12T13:33:54.115Z,8.31
2023-03-12T13:34:54.041Z,8.34
2023-03-12T13:35:54.063Z,8.35
2023-03-12T13:36:54.039Z,8.39
2023-03-12T13:37:54.102Z,8.42
2023-03-12T13:38:54.182Z,8.50
2023-03-12T13:39:54.103Z,8.44
2023-03-12T13:40:54.147Z,8.44
2023-03-12T13:41:54.010Z,8.44
2023-03-12T13:42:54.173Z,8.46
2023-03-12T13:43:54.066Z,8.45
2023-03-12T13:44:53.936Z,8.34
2023-03-12T13:45:54.051Z,8.31
2023-03-12T13:46:53.865Z,8.23
2023-03-12T13:47:53.843Z,8.27
2023-03-12T13:48:53.857Z,8.27
2023-03-12T13:49:54.026Z,8.23
2023-03-12T13:50:53.907Z,8.24
2023-03-12T13:51:53.768Z,8.23
2023-03-12T13:52:53.862Z,8.18
2023-03-12T13:53:53.782Z,8.13
2023-03-12T13:54:53.840Z,8.06
2023-03-12T13:55:54.070Z,8.06
2023-03-12T13:56:53.730Z,8.01
2023-03-12T13:57:54.024Z,8.01
2023-03-12T13:58:53.838Z,8.03
2023-03-12T13:59:54.020Z,8.16
2023-03-12T14:00:53.665Z,8.14
2023-03-12T14:01:53.757Z,8.03
2023-03-12T14:02:53.682Z,8.06
2023-03-12T14:03:53.663Z,8.06
2023-03-12T14:04:53.852Z,8.05
2023-03-12T14:05:53.674Z,7.98
2023-03-12T14:06:53.563Z,7.81
2023-03-12T14:07:53.753Z,7.67
2023-03-12T14:08:53.543Z,7.56
2023-03-12T14:09:53.728Z,7.48
2023-03-12T14:10:53.530Z,7.43
2023-03-12T14:11:53.709Z,7.29
2023-03-12T14:12:53.549Z,7.29
2023-03-12T14:13:53.764Z,7.40
2023-03-12T14:14:53.588Z,7.46
2023-03-12T14:15:53.714Z,7.51
2023-03-12T14:16:53.530Z,7.56
2023-03-12T14:17:53.433Z,7.64
2023-03-12T14:18:53.463Z,7.64
2023-03-12T14:19:53.434Z,7.58
2023-03-12T14:20:53.548Z,7.59
2023-03-12T14:21:53.433Z,7.59
2023-03-12T14:22:53.587Z,7.58
2023-03-12T14:23:53.375Z,7.53
2023-03-12T14:24:53.586Z,7.48
2023-03-12T14:25:53.376Z,7.50
2023-03-12T14:26:53.627Z,7.48
2023-03-12T14:27:53.390Z,7.44
2023-03-12T14:28:53.310Z,7.39
2023-03-12T14:29:53.380Z,7.39
2023-03-12T14:30:53.359Z,7.36
2023-03-12T14:31:53.284Z,7.37
2023-03-12T14:32:53.383Z,7.36
2023-03-12T14:33:53.209Z,7.32
2023-03-12T14:34:53.248Z,7.31
2023-03-12T14:35:53.254Z,7.32
2023-03-12T14:36:53.213Z,7.39
2023-03-12T14:37:53.196Z,7.40
2023-03-12T14:38:53.280Z,7.37
2023-03-12T14:39:53.375Z,7.33
2023-03-12T14:40:53.220Z,7.29
2023-03-12T14:41:53.161Z,7.25
2023-03-12T14:42:53.094Z,7.25
2023-03-12T14:43:53.194Z,7.19
2023-03-12T14:44:53.089Z,7.14
2023-03-12T14:45:53.089Z,7.10
2023-03-12T14:46:53.279Z,7.03
2023-03-12T14:47:53.070Z,7.00
2023-03-12T14:48:53.082Z,6.96
2023-03-12T14:49:53.081Z,6.90
2023-03-12T14:50:53.211Z,6.86
2023-03-12T14:51:53.019Z,6.86
2023-03-12T14:52:52.955Z,6.87
2023-03-12T14:53:53.163Z,6.83
2023-03-12T14:54:53.022Z,6.85
2023-03-12T14:55:53.047Z,6.85
2023-03-12T14:56:52.944Z,6.82
2023-03-12T14:57:53.063Z,6.78
2023-03-12T14:58:52.871Z,6.77
2023-03-12T14:59:52.830Z,6.74
2023-03-12T15:00:52.944Z,6.71
2023-03-12T15:01:52.961Z,6.67
2023-03-12T15:02:52.870Z,6.57
2023-03-12T15:03:52.880Z,6.52
2023-03-12T15:04:54.687Z,6.43
2023-03-12T15:05:52.796Z,6.36
2023-03-12T15:06:52.973Z,6.29
2023-03-12T15:07:52.788Z,6.22
2023-03-12T15:08:52.920Z,6.17
2023-03-12T15:09:52.734Z,6.13
2023-03-12T15:10:52.993Z,6.12
2023-03-12T15:11:52.778Z,6.12
2023-03-12T15:12:52.721Z,6.12
2023-03-12T15:13:52.752Z,6.17
2023-03-12T15:14:52.673Z,6.22
2023-03-12T15:15:52.814Z,6.26
2023-03-12T15:16:52.687Z,6.28
2023-03-12T15:17:52.712Z,6.29
2023-03-12T15:18:52.659Z,6.34
2023-03-12T15:19:52.709Z,6.32
2023-03-12T15:20:52.632Z,6.25
2023-03-12T15:21:52.572Z,6.20
2023-03-12T15:22:52.632Z,6.17
2023-03-12T15:23:52.577Z,6.20
2023-03-12T15:24:52.607Z,6.19
2023-03-12T15:25:52.518Z,6.17
2023-03-12T15:26:52.494Z,6.09
2023-03-12T15:27:52.482Z,6.06
2023-03-12T15:28:52.503Z,6.06
